createdAt,value
2022-11-16T00:01:42.935Z,96978.41
2022-11-16T00:04:11.864Z,96976.31
2022-11-16T00:06:38.524Z,96977.97
2022-11-16T00:09:23.157Z,96978.25
2022-11-16T00:11:52.811Z,96971.53
2022-11-16T00:14:21.950Z,96980.50
2022-11-16T00:16:48.553Z,96968.16
2022-11-16T00:19:15.076Z,96969.69
2022-11-16T00:21:42.084Z,96967.69
2022-11-16T00:24:13.446Z,96967.69
2022-11-16T00:26:40.073Z,96967.03
2022-11-16T00:29:06.717Z,96957.78
2022-11-16T00:31:33.142Z,96955.72
2022-11-16T00:33:59.559Z,96949.16
2022-11-16T00:36:26.004Z,96945.78
2022-11-16T00:38:55.949Z,96943.84
2022-11-16T00:41:22.723Z,96938.81
2022-11-16T00:43:49.210Z,96936.03
2022-11-16T00:46:16.304Z,96936.69
2022-11-16T00:48:42.779Z,96946.28
2022-11-16T00:51:09.274Z,96936.84
2022-11-16T00:53:36.673Z,96932.69
2022-11-16T00:56:04.066Z,96931.75
2022-11-16T00:58:31.394Z,96936.31
2022-11-16T01:01:07.629Z,96937.75
2022-11-16T01:03:36.135Z,96939.69
2022-11-16T01:06:10.332Z,96933.59
2022-11-16T01:08:38.975Z,96934.44
2022-11-16T01:11:25.828Z,96935.78
2022-11-16T01:13:52.474Z,96934.19
2022-11-16T01:16:21.884Z,96940.81
2022-11-16T01:18:50.900Z,96934.44
2022-11-16T01:21:18.548Z,96937.69
2022-11-16T01:23:45.789Z,96928.22
2022-11-16T01:26:12.716Z,96932.41
2022-11-16T01:28:39.181Z,96925.78
2022-11-16T01:31:05.985Z,96928.50
2022-11-16T01:33:32.425Z,96923.22
2022-11-16T01:35:58.878Z,96919.75
2022-11-16T01:38:29.523Z,96924.22
2022-11-16T01:40:56.561Z,96921.03
2022-11-16T01:43:26.974Z,96920.88
2022-11-16T01:45:53.495Z,96923.16
2022-11-16T01:48:29.101Z,96918.56
2022-11-16T01:50:57.743Z,96914.53
2022-11-16T01:53:24.923Z,96915.28
2022-11-16T01:55:52.682Z,96920.06
2022-11-16T01:58:24.577Z,96917.09
2022-11-16T02:00:51.124Z,96900.34
2022-11-16T02:03:19.828Z,96907.09
2022-11-16T02:06:04.471Z,96902.88
2022-11-16T02:08:59.185Z,96901.00
2022-11-16T02:12:13.865Z,96896.75
2022-11-16T02:14:58.356Z,96898.44
2022-11-16T02:17:51.367Z,96897.63
2022-11-16T02:20:52.077Z,96891.72
2022-11-16T02:23:49.617Z,96893.78
2022-11-16T02:26:39.275Z,96887.56
2022-11-16T02:29:20.923Z,96894.28
2022-11-16T02:32:12.078Z,96889.00
2022-11-16T02:34:48.537Z,96884.66
2022-11-16T02:37:21.297Z,96881.47
2022-11-16T02:39:55.996Z,96868.84
2022-11-16T02:42:49.058Z,96871.56
2022-11-16T02:45:24.875Z,96873.19
2022-11-16T02:47:58.340Z,96875.25
2022-11-16T02:50:26.800Z,96867.63
2022-11-16T02:52:53.224Z,96863.34
2022-11-16T02:55:19.766Z,96859.66
2022-11-16T02:57:57.221Z,96857.75
2022-11-16T03:00:30.446Z,96858.75
2022-11-16T03:03:13.509Z,96865.53
2022-11-16T03:06:06.170Z,96874.84
2022-11-16T03:08:40.273Z,96874.47
2022-11-16T03:11:29.402Z,96882.19
2022-11-16T03:14:02.401Z,96871.63
2022-11-16T03:16:38.286Z,96878.09
2022-11-16T03:19:14.379Z,96874.50
2022-11-16T03:21:50.907Z,96875.75
2022-11-16T03:24:17.470Z,96878.00
2022-11-16T03:27:10.725Z,96874.28
2022-11-16T03:30:02.268Z,96874.09
2022-11-16T03:32:55.709Z,96877.72
2022-11-16T03:35:30.677Z,96870.47
2022-11-16T03:38:00.594Z,96874.34
2022-11-16T03:40:32.206Z,96871.25
2022-11-16T03:43:02.174Z,96875.78
2022-11-16T03:45:31.326Z,96873.31
2022-11-16T03:47:57.838Z,96865.00
2022-11-16T03:50:24.283Z,96866.69
2022-11-16T03:52:50.789Z,96863.88
2022-11-16T03:55:17.438Z,96865.22
2022-11-16T03:57:44.193Z,96858.44
2022-11-16T04:00:12.590Z,96856.97
2022-11-16T04:02:39.008Z,96866.88
2022-11-16T04:05:24.186Z,96872.63
2022-11-16T04:08:09.463Z,96880.69
2022-11-16T04:10:54.649Z,96872.09
2022-11-16T04:13:47.986Z,96867.56
2022-11-16T04:16:33.248Z,96865.53
2022-11-16T04:19:18.691Z,96868.72
2022-11-16T04:22:12.622Z,96871.00
2022-11-16T04:24:46.098Z,96878.94
2022-11-16T04:27:34.293Z,96874.63
2022-11-16T04:30:03.454Z,96874.63
2022-11-16T04:32:48.631Z,96869.44
2022-11-16T04:35:33.840Z,96878.03
2022-11-16T04:38:00.720Z,96879.31
2022-11-16T04:40:29.381Z,96883.91
2022-11-16T04:42:59.780Z,96881.28
2022-11-16T04:45:46.325Z,96878.63
2022-11-16T04:48:14.892Z,96878.63
2022-11-16T04:50:43.085Z,96877.75
2022-11-16T04:53:09.924Z,96878.34
2022-11-16T04:55:36.485Z,96868.50
2022-11-16T04:58:03.695Z,96867.78
2022-11-16T05:00:30.794Z,96871.72
2022-11-16T05:03:01.211Z,96880.16
2022-11-16T05:05:28.472Z,96888.19
2022-11-16T05:07:54.981Z,96886.69
2022-11-16T05:10:21.440Z,96892.44
2022-11-16T05:12:47.877Z,96882.25
2022-11-16T05:15:14.355Z,96886.41
2022-11-16T05:17:40.867Z,96878.88
2022-11-16T05:20:27.918Z,96889.25
2022-11-16T05:22:55.591Z,96896.44
2022-11-16T05:25:22.247Z,96889.72
2022-11-16T05:27:48.740Z,96890.00
2022-11-16T05:30:15.651Z,96902.56
2022-11-16T05:32:42.130Z,96897.91
2022-11-16T05:35:08.753Z,96903.00
2022-11-16T05:37:35.334Z,96894.19
2022-11-16T05:40:01.848Z,96890.69
2022-11-16T05:42:28.290Z,96886.25
2022-11-16T05:44:54.824Z,96893.03
2022-11-16T05:47:21.354Z,96890.25
2022-11-16T05:49:47.801Z,96893.03
2022-11-16T05:52:14.223Z,96900.78
2022-11-16T05:54:40.666Z,96889.88
2022-11-16T05:57:07.092Z,96892.50
2022-11-16T05:59:33.610Z,96902.75
2022-11-16T06:02:00.092Z,96901.38
2022-11-16T06:04:26.795Z,96913.06
2022-11-16T06:06:53.304Z,96911.81
2022-11-16T06:09:19.930Z,96918.09
2022-11-16T06:11:46.481Z,96914.16
2022-11-16T06:14:12.952Z,96908.06
2022-11-16T06:16:39.389Z,96914.53
2022-11-16T06:19:05.915Z,96917.88
2022-11-16T06:21:33.024Z,96925.19
2022-11-16T06:23:59.695Z,96924.59
2022-11-16T06:26:26.281Z,96931.22
2022-11-16T06:28:54.795Z,96940.16
2022-11-16T06:31:21.433Z,96921.88
2022-11-16T06:33:47.868Z,96936.69
2022-11-16T06:36:14.311Z,96927.72
2022-11-16T06:38:40.919Z,96930.75
2022-11-16T06:41:07.363Z,96936.41
2022-11-16T06:43:33.818Z,96931.59
2022-11-16T06:46:00.249Z,96935.50
2022-11-16T06:48:26.896Z,96940.06
2022-11-16T06:50:54.031Z,96956.59
2022-11-16T06:53:24.599Z,96954.00
2022-11-16T06:55:54.163Z,96954.88
2022-11-16T06:58:20.614Z,96960.16
2022-11-16T07:00:47.042Z,96953.91
2022-11-16T07:03:13.469Z,96970.00
2022-11-16T07:05:41.995Z,96965.31
2022-11-16T07:08:09.006Z,96966.44
2022-11-16T07:10:37.320Z,96966.31
2022-11-16T07:13:04.811Z,96973.22
2022-11-16T07:15:33.012Z,96976.16
2022-11-16T07:18:05.273Z,96982.13
2022-11-16T07:20:32.032Z,96977.78
2022-11-16T07:23:03.215Z,96987.03
2022-11-16T07:25:29.748Z,96978.41
2022-11-16T07:27:58.033Z,96986.22
2022-11-16T07:30:24.883Z,96980.16
2022-11-16T07:32:51.367Z,96981.41
2022-11-16T07:35:17.919Z,96978.81
2022-11-16T07:37:44.417Z,96990.72
2022-11-16T07:40:11.206Z,96986.91
2022-11-16T07:42:37.762Z,96988.75
2022-11-16T07:45:04.809Z,96993.03
2022-11-16T07:47:37.113Z,96996.22
2022-11-16T07:50:06.481Z,96997.19
2022-11-16T07:52:32.935Z,97003.25
2022-11-16T07:54:59.510Z,97004.72
2022-11-16T07:57:26.032Z,97006.13
2022-11-16T07:59:52.479Z,97004.94
2022-11-16T08:02:18.963Z,97004.75
2022-11-16T08:04:45.478Z,97000.66
2022-11-16T08:07:12.015Z,97018.91
2022-11-16T08:09:39.402Z,97022.47
2022-11-16T08:12:06.145Z,97029.25
2022-11-16T08:14:32.610Z,97036.31
2022-11-16T08:16:59.072Z,97043.94
2022-11-16T08:19:25.559Z,97041.38
2022-11-16T08:21:51.994Z,97046.88
2022-11-16T08:24:18.457Z,97054.91
2022-11-16T08:26:44.921Z,97050.56
2022-11-16T08:29:11.500Z,97056.09
2022-11-16T08:31:38.117Z,97067.72
2022-11-16T08:34:04.781Z,97070.06
2022-11-16T08:36:31.288Z,97078.94
2022-11-16T08:38:57.975Z,97075.94
2022-11-16T08:41:24.532Z,97081.41
2022-11-16T08:43:51.047Z,97091.69
2022-11-16T08:46:17.814Z,97098.00
2022-11-16T08:48:44.713Z,97097.66
2022-11-16T08:51:19.203Z,97100.28
2022-11-16T08:53:48.190Z,97100.91
2022-11-16T08:56:17.137Z,97108.25
2022-11-16T08:58:44.295Z,97104.38
2022-11-16T09:01:20.622Z,97104.84
2022-11-16T09:03:47.444Z,97112.59
2022-11-16T09:06:15.722Z,97101.63
2022-11-16T09:08:44.241Z,97111.22
2022-11-16T09:11:15.906Z,97106.66
2022-11-16T09:13:44.417Z,97108.19
2022-11-16T09:16:11.749Z,97103.50
2022-11-16T09:18:38.710Z,97109.31
2022-11-16T09:21:05.277Z,97110.41
2022-11-16T09:23:31.809Z,97114.28
2022-11-16T09:26:03.892Z,97105.97
2022-11-16T09:28:30.973Z,97114.72
2022-11-16T09:31:04.195Z,97116.06
2022-11-16T09:33:32.868Z,97122.56
2022-11-16T09:36:08.261Z,97121.19
2022-11-16T09:39:10.135Z,97126.19
2022-11-16T09:42:10.226Z,97124.38
2022-11-16T09:45:12.616Z,97123.03
2022-11-16T09:47:49.462Z,97112.63
2022-11-16T09:50:32.325Z,97120.38
2022-11-16T09:53:11.917Z,97125.22
2022-11-16T09:55:50.932Z,97125.78
2022-11-16T09:58:26.796Z,97123.28
2022-11-16T10:01:03.344Z,97124.78
2022-11-16T10:03:41.331Z,97121.03
2022-11-16T10:06:21.986Z,97122.84
2022-11-16T10:08:56.531Z,97118.56
2022-11-16T10:11:54.992Z,97124.22
2022-11-16T10:15:01.307Z,97124.06
2022-11-16T10:17:41.498Z,97114.50
2022-11-16T10:20:10.768Z,97114.25
2022-11-16T10:23:02.974Z,97120.16
2022-11-16T10:25:43.734Z,97105.63
2022-11-16T10:28:50.858Z,97103.09
2022-11-16T10:31:32.431Z,97097.84
2022-11-16T10:34:03.373Z,97096.88
2022-11-16T10:36:35.926Z,97101.75
2022-11-16T10:39:02.618Z,97098.41
2022-11-16T10:41:42.020Z,97089.47
2022-11-16T10:44:38.191Z,97083.97
2022-11-16T10:47:42.554Z,97084.84
2022-11-16T10:50:33.408Z,97079.56
2022-11-16T10:53:00.824Z,97077.22
2022-11-16T10:55:31.060Z,97064.50
2022-11-16T10:58:02.846Z,97067.69
2022-11-16T11:00:40.848Z,97066.97
2022-11-16T11:03:09.519Z,97067.84
2022-11-16T11:05:37.733Z,97064.25
2022-11-16T11:08:11.088Z,97065.63
2022-11-16T11:10:41.492Z,97059.09
2022-11-16T11:13:25.529Z,97056.34
2022-11-16T11:15:53.138Z,97064.28
2022-11-16T11:18:29.018Z,97067.31
2022-11-16T11:21:15.380Z,97059.72
2022-11-16T11:23:52.709Z,97061.38
2022-11-16T11:26:41.562Z,97058.34
2022-11-16T11:29:36.228Z,97054.41
2022-11-16T11:32:38.573Z,97063.38
2022-11-16T11:35:06.592Z,97051.28
2022-11-16T11:37:38.192Z,97052.22
2022-11-16T11:40:28.787Z,97053.13
2022-11-16T11:43:02.129Z,97044.78
2022-11-16T11:45:54.857Z,97042.00
2022-11-16T11:48:53.646Z,97033.38
2022-11-16T11:51:35.032Z,97030.81
2022-11-16T11:54:05.040Z,97029.25
2022-11-16T11:56:34.039Z,97034.09
2022-11-16T11:59:04.216Z,97029.63
2022-11-16T12:02:02.737Z,97025.94
2022-11-16T12:04:50.101Z,97019.13
2022-11-16T12:07:46.375Z,97024.66
2022-11-16T12:10:37.544Z,97006.41
2022-11-16T12:13:55.517Z,97007.66
2022-11-16T12:16:48.877Z,97012.31
2022-11-16T12:19:39.579Z,97012.38
2022-11-16T12:22:27.506Z,97011.75
2022-11-16T12:25:42.294Z,97001.38
2022-11-16T12:28:29.760Z,97006.88
2022-11-16T12:31:27.165Z,96999.25
2022-11-16T12:34:41.136Z,97000.75
2022-11-16T12:37:25.934Z,97005.31
2022-11-16T12:40:33.685Z,96999.59
2022-11-16T12:43:31.096Z,96994.78
2022-11-16T12:46:12.654Z,96996.00
2022-11-16T12:49:04.673Z,96993.59
2022-11-16T12:51:59.395Z,96996.84
2022-11-16T12:55:27.561Z,96994.13
2022-11-16T12:58:14.334Z,96986.09
2022-11-16T13:01:28.900Z,96984.78
2022-11-16T13:04:22.251Z,96984.91
2022-11-16T13:07:10.394Z,96991.38
2022-11-16T13:09:45.678Z,96982.47
2022-11-16T13:12:23.428Z,96977.28
2022-11-16T13:14:55.731Z,96979.63
2022-11-16T13:17:28.335Z,96974.09
2022-11-16T13:20:21.082Z,96982.09
2022-11-16T13:23:01.790Z,96987.69
2022-11-16T13:25:50.032Z,96976.22
2022-11-16T13:28:51.303Z,96969.50
2022-11-16T13:31:23.593Z,96965.06
2022-11-16T13:33:58.575Z,96976.88
2022-11-16T13:36:37.096Z,96971.53
2022-11-16T13:39:08.114Z,96974.38
2022-11-16T13:41:39.192Z,96970.91
2022-11-16T13:44:29.188Z,96975.38
2022-11-16T13:47:04.587Z,96958.63
2022-11-16T13:49:42.881Z,96958.03
2022-11-16T13:52:40.436Z,96951.28
2022-11-16T13:55:26.044Z,96948.50
2022-11-16T13:57:56.020Z,96947.88
2022-11-16T14:00:30.482Z,96953.38
2022-11-16T14:03:12.098Z,96955.84
2022-11-16T14:05:42.867Z,96944.97
2022-11-16T14:08:24.198Z,96946.75
2022-11-16T14:10:50.568Z,96945.91
2022-11-16T14:13:42.283Z,96947.78
2022-11-16T14:16:14.843Z,96943.13
2022-11-16T14:18:43.808Z,96939.50
2022-11-16T14:21:19.284Z,96938.94
2022-11-16T14:24:16.708Z,96929.31
2022-11-16T14:27:13.339Z,96931.66
2022-11-16T14:30:04.918Z,96920.13
2022-11-16T14:32:42.972Z,96927.00
2022-11-16T14:35:33.929Z,96923.00
2022-11-16T14:38:15.574Z,96931.97
2022-11-16T14:40:48.813Z,96938.28
2022-11-16T14:43:31.205Z,96940.00
2022-11-16T14:46:07.369Z,96945.06
2022-11-16T14:48:43.231Z,96934.19
2022-11-16T14:51:16.319Z,96933.31
2022-11-16T14:53:52.358Z,96927.28
2022-11-16T14:56:19.895Z,96929.84
2022-11-16T14:58:56.491Z,96930.78
2022-11-16T15:01:36.542Z,96931.13
2022-11-16T15:04:12.086Z,96929.34
2022-11-16T15:06:45.547Z,96918.19
2022-11-16T15:09:26.928Z,96915.94
2022-11-16T15:12:13.282Z,96924.38
2022-11-16T15:15:03.063Z,96929.41
2022-11-16T15:17:33.308Z,96926.09
2022-11-16T15:20:19.618Z,96928.06
2022-11-16T15:22:51.910Z,96922.72
2022-11-16T15:25:35.616Z,96915.75
2022-11-16T15:28:20.365Z,96919.09
2022-11-16T15:30:53.262Z,96912.84
2022-11-16T15:33:32.046Z,96913.22
2022-11-16T15:35:59.376Z,96908.63
2022-11-16T15:38:33.366Z,96901.69
2022-11-16T15:41:04.012Z,96910.66
2022-11-16T15:44:11.683Z,96906.75
2022-11-16T15:46:35.511Z,96894.44
2022-11-16T15:49:02.900Z,96890.91
2022-11-16T15:51:31.248Z,96892.72
2022-11-16T15:54:53.903Z,96890.13
2022-11-16T15:57:23.800Z,96891.72
2022-11-16T15:59:56.777Z,96891.56
2022-11-16T16:02:30.349Z,96887.06
2022-11-16T16:04:57.103Z,96890.66
2022-11-16T16:07:42.092Z,96887.94
2022-11-16T16:10:20.612Z,96871.16
2022-11-16T16:12:50.516Z,96874.84
2022-11-16T16:15:36.392Z,96881.81
2022-11-16T16:18:14.136Z,96879.28
2022-11-16T16:20:48.423Z,96879.00
2022-11-16T16:23:16.222Z,96875.75
2022-11-16T16:25:47.492Z,96881.63
2022-11-16T16:28:16.668Z,96875.13
2022-11-16T16:30:43.119Z,96867.94
2022-11-16T16:33:19.590Z,96866.56
2022-11-16T16:35:49.540Z,96864.22
2022-11-16T16:38:15.981Z,96867.84
2022-11-16T16:40:42.462Z,96862.13
2022-11-16T16:43:08.920Z,96858.13
2022-11-16T16:45:41.834Z,96858.84
2022-11-16T16:48:12.612Z,96853.47
2022-11-16T16:50:39.231Z,96850.19
2022-11-16T16:53:05.798Z,96848.94
2022-11-16T16:55:36.972Z,96854.75
2022-11-16T16:58:05.021Z,96848.66
2022-11-16T17:00:31.790Z,96849.13
2022-11-16T17:02:58.450Z,96840.22
2022-11-16T17:05:26.362Z,96836.59
2022-11-16T17:07:56.279Z,96841.06
2022-11-16T17:10:23.571Z,96833.97
2022-11-16T17:12:54.037Z,96833.31
2022-11-16T17:15:20.801Z,96837.50
2022-11-16T17:17:47.389Z,96836.56
2022-11-16T17:20:14.503Z,96838.66
2022-11-16T17:22:41.789Z,96837.53
2022-11-16T17:25:09.383Z,96842.88
2022-11-16T17:27:36.091Z,96836.31
2022-11-16T17:30:03.004Z,96833.13
2022-11-16T17:32:30.206Z,96829.34
2022-11-16T17:34:56.677Z,96835.88
2022-11-16T17:37:23.137Z,96839.97
2022-11-16T17:39:49.597Z,96831.84
2022-11-16T17:42:16.140Z,96827.00
2022-11-16T17:44:42.616Z,96831.97
2022-11-16T17:47:09.127Z,96830.78
2022-11-16T17:49:35.581Z,96822.34
2022-11-16T17:52:02.195Z,96817.06
2022-11-16T17:54:28.651Z,96817.50
2022-11-16T17:56:55.153Z,96813.81
2022-11-16T17:59:25.055Z,96810.47
2022-11-16T18:01:55.678Z,96806.03
2022-11-16T18:04:22.154Z,96808.13
2022-11-16T18:06:48.646Z,96804.06
2022-11-16T18:09:15.118Z,96805.09
2022-11-16T18:11:41.693Z,96805.50
2022-11-16T18:14:10.389Z,96804.31
2022-11-16T18:16:37.231Z,96805.84
2022-11-16T18:19:06.451Z,96813.63
2022-11-16T18:21:40.107Z,96814.34
2022-11-16T18:24:07.323Z,96813.81
2022-11-16T18:26:33.825Z,96819.06
2022-11-16T18:29:00.360Z,96809.28
2022-11-16T18:31:26.877Z,96801.97
2022-11-16T18:33:53.406Z,96790.25
2022-11-16T18:36:21.860Z,96793.44
2022-11-16T18:38:48.807Z,96798.75
2022-11-16T18:41:20.647Z,96793.47
2022-11-16T18:43:53.888Z,96783.53
2022-11-16T18:46:23.848Z,96786.97
2022-11-16T18:48:50.338Z,96791.00
2022-11-16T18:51:19.641Z,96790.44
2022-11-16T18:53:46.469Z,96784.34
2022-11-16T18:56:13.190Z,96786.84
2022-11-16T18:58:55.676Z,96782.41
2022-11-16T19:01:25.759Z,96788.19
2022-11-16T19:03:54.770Z,96793.03
2022-11-16T19:06:23.189Z,96784.31
2022-11-16T19:08:59.147Z,96787.03
2022-11-16T19:11:28.030Z,96782.91
2022-11-16T19:14:04.608Z,96779.59
2022-11-16T19:16:31.390Z,96784.75
2022-11-16T19:18:57.880Z,96788.72
2022-11-16T19:21:25.305Z,96788.75
2022-11-16T19:23:54.558Z,96793.44
2022-11-16T19:26:24.771Z,96796.50
2022-11-16T19:28:53.068Z,96794.59
2022-11-16T19:31:31.071Z,96792.38
2022-11-16T19:34:04.853Z,96784.75
2022-11-16T19:36:33.984Z,96785.59
2022-11-16T19:39:00.826Z,96778.81
2022-11-16T19:41:28.331Z,96776.91
2022-11-16T19:43:59.825Z,96776.06
2022-11-16T19:46:29.474Z,96777.88
2022-11-16T19:48:56.848Z,96766.53
2022-11-16T19:51:29.590Z,96757.25
2022-11-16T19:53:56.299Z,96753.81
2022-11-16T19:56:24.410Z,96756.97
2022-11-16T19:58:51.539Z,96751.72
2022-11-16T20:01:26.063Z,96748.97
2022-11-16T20:03:52.608Z,96743.00
2022-11-16T20:06:26.477Z,96737.91
2022-11-16T20:09:02.757Z,96749.22
2022-11-16T20:11:36.215Z,96741.91
2022-11-16T20:14:06.609Z,96737.03
2022-11-16T20:16:39.196Z,96741.59
2022-11-16T20:19:08.662Z,96745.47
2022-11-16T20:21:40.987Z,96741.28
2022-11-16T20:24:11.933Z,96735.59
2022-11-16T20:26:45.170Z,96722.03
2022-11-16T20:29:13.747Z,96721.47
2022-11-16T20:31:42.590Z,96718.63
2022-11-16T20:34:16.146Z,96715.31
2022-11-16T20:36:45.722Z,96719.06
2022-11-16T20:39:18.098Z,96725.38
2022-11-16T20:41:45.612Z,96713.72
2022-11-16T20:44:17.657Z,96715.22
2022-11-16T20:46:45.058Z,96705.53
2022-11-16T20:49:12.139Z,96704.56
2022-11-16T20:51:38.921Z,96697.63
2022-11-16T20:54:05.621Z,96695.16
2022-11-16T20:56:32.312Z,96688.38
2022-11-16T20:58:59.440Z,96683.03
2022-11-16T21:01:33.302Z,96683.31
2022-11-16T21:04:03.134Z,96672.78
2022-11-16T21:06:30.084Z,96670.97
2022-11-16T21:08:57.499Z,96668.81
2022-11-16T21:11:30.689Z,96664.09
2022-11-16T21:14:15.776Z,96661.53
2022-11-16T21:16:42.728Z,96663.34
2022-11-16T21:19:10.341Z,96653.28
2022-11-16T21:21:38.004Z,96658.28
2022-11-16T21:24:04.674Z,96645.47
2022-11-16T21:26:33.774Z,96649.56
2022-11-16T21:29:01.910Z,96644.50
2022-11-16T21:31:35.397Z,96648.94
2022-11-16T21:34:02.637Z,96646.91
2022-11-16T21:36:31.625Z,96652.84
2022-11-16T21:38:58.409Z,96649.22
2022-11-16T21:41:26.178Z,96629.72
2022-11-16T21:43:53.399Z,96637.16
2022-11-16T21:46:24.613Z,96631.53
2022-11-16T21:48:52.635Z,96629.09
2022-11-16T21:51:21.708Z,96627.16
2022-11-16T21:53:48.481Z,96625.34
2022-11-16T21:56:18.623Z,96617.22
2022-11-16T21:58:46.213Z,96613.03
2022-11-16T22:01:15.632Z,96621.16
2022-11-16T22:03:42.380Z,96613.94
2022-11-16T22:06:33.697Z,96608.97
2022-11-16T22:09:01.051Z,96614.00
2022-11-16T22:11:27.964Z,96604.84
2022-11-16T22:13:54.420Z,96604.34
2022-11-16T22:16:22.996Z,96590.31
2022-11-16T22:18:49.975Z,96589.50
2022-11-16T22:21:16.752Z,96577.31
2022-11-16T22:23:43.244Z,96580.47
2022-11-16T22:26:14.604Z,96570.34
2022-11-16T22:28:41.662Z,96572.44
2022-11-16T22:31:14.302Z,96566.84
2022-11-16T22:33:41.407Z,96560.47
2022-11-16T22:36:11.024Z,96557.56
2022-11-16T22:38:37.669Z,96547.63
2022-11-16T22:41:05.130Z,96541.09
2022-11-16T22:43:32.596Z,96540.78
2022-11-16T22:46:05.503Z,96535.00
2022-11-16T22:48:34.520Z,96528.69
2022-11-16T22:51:18.712Z,96523.88
2022-11-16T22:53:45.314Z,96522.25
2022-11-16T22:56:12.529Z,96520.88
2022-11-16T22:58:40.240Z,96505.47
2022-11-16T23:01:09.173Z,96499.75
2022-11-16T23:03:37.059Z,96510.28
2022-11-16T23:06:05.531Z,96503.06
2022-11-16T23:08:33.395Z,96501.56
2022-11-16T23:11:44.542Z,96502.25
2022-11-16T23:14:33.183Z,96487.13
2022-11-16T23:17:00.508Z,96487.97
2022-11-16T23:19:46.172Z,96481.28
2022-11-16T23:22:34.800Z,96474.38
2022-11-16T23:25:20.719Z,96473.03
2022-11-16T23:28:00.183Z,96473.63
2022-11-16T23:30:27.115Z,96462.88
2022-11-16T23:32:54.184Z,96458.25
2022-11-16T23:35:21.282Z,96452.34
2022-11-16T23:38:06.827Z,96451.75
2022-11-16T23:40:37.304Z,96430.72
2022-11-16T23:43:24.005Z,96434.53
2022-11-16T23:45:51.200Z,96433.25
2022-11-16T23:48:18.784Z,96424.31
2022-11-16T23:50:46.430Z,96432.13
2022-11-16T23:53:13.527Z,96426.88
2022-11-16T23:55:40.791Z,96424.31
2022-11-16T23:58:13.444Z,96416.69
